Time;durP1;ratioP1;P1;durP2;ratioP2;P2;SDS_P1;SDS_P2;PMS_P1;PMS_P2;Temp;Humidity;BMP_temperature;BMP_pressure;BME280_temperature;BME280_humidity;BME280_pressure;Samples;Min_cycle;Max_cycle;Signal;HPM_P1;HPM_P2
2021/08/12 00:00:29;;;;;;;10.27;6.10;;;17.10;99.90;;;16.81;98.53;101547.09;4120240;28;20030;-74
2021/08/12 00:02:30;;;;;;;10.75;5.68;;;17.00;99.90;;;16.69;99.54;101544.00;4136488;28;20030;-74
2021/08/12 00:04:32;;;;;;;6.03;5.25;;;17.00;99.90;;;16.62;100.00;101539.53;4152730;28;20034;-74
2021/08/12 00:06:32;;;;;;;7.82;5.82;;;16.90;99.90;;;16.54;100.00;101546.59;4136350;28;20058;-74
2021/08/12 00:08:34;;;;;;;6.80;6.00;;;16.80;99.90;;;16.50;100.00;101539.91;4120994;28;20039;-74
2021/08/12 00:10:35;;;;;;;7.63;5.95;;;16.80;99.90;;;16.41;100.00;101530.31;4120179;28;20034;-74
2021/08/12 00:12:36;;;;;;;10.18;6.32;;;16.70;99.90;;;16.47;100.00;101540.28;4136307;28;20030;-74
2021/08/12 00:14:37;;;;;;;7.38;5.00;;;16.70;99.90;;;16.34;100.00;101540.00;4120145;28;20050;-74
2021/08/12 00:16:38;;;;;;;7.70;5.38;;;16.70;99.90;;;16.30;100.00;101541.38;4121216;28;20029;-74
2021/08/12 00:18:42;;;;;;;9.40;5.78;;;16.60;99.90;;;16.26;100.00;101536.53;4121213;28;20031;-74
2021/08/12 00:20:43;;;;;;;7.03;4.68;;;16.60;99.90;;;16.22;100.00;101538.72;4120097;28;20030;-74
2021/08/12 00:22:44;;;;;;;8.07;5.10;;;16.50;99.90;;;16.24;100.00;101544.72;4119717;28;20035;-74
2021/08/12 00:24:45;;;;;;;6.40;4.45;;;16.50;99.90;;;16.22;100.00;101540.56;4135886;28;20042;-74
2021/08/12 00:26:46;;;;;;;6.15;5.28;;;16.40;99.90;;;16.17;100.00;101543.75;4119999;28;20069;-74
2021/08/12 00:28:47;;;;;;;8.57;5.13;;;16.40;99.90;;;16.10;100.00;101534.78;4120905;28;20030;-74
2021/08/12 00:30:48;;;;;;;7.00;5.25;;;16.40;99.90;;;16.03;100.00;101536.47;4119797;28;20034;-74
2021/08/12 00:32:49;;;;;;;6.85;4.80;;;16.30;99.90;;;16.03;100.00;101542.66;4119724;28;20027;-74
2021/08/12 00:34:50;;;;;;;5.15;4.60;;;16.30;99.90;;;16.01;100.00;101538.47;4135813;28;20026;-74
2021/08/12 00:36:51;;;;;;;6.65;5.00;;;16.30;99.90;;;16.04;100.00;101532.78;4119788;28;20510;-74
2021/08/12 00:38:52;;;;;;;8.00;4.75;;;16.20;99.90;;;16.11;100.00;101538.28;4135520;28;20054;-74
2021/08/12 00:40:53;;;;;;;6.47;4.93;;;16.20;99.90;;;16.13;100.00;101538.94;4120435;28;20069;-74
2021/08/12 00:42:54;;;;;;;9.55;5.95;;;16.20;99.90;;;16.29;100.00;101537.03;4135543;28;20054;-74
2021/08/12 00:44:55;;;;;;;8.32;6.35;;;16.30;99.90;;;16.35;100.00;101538.16;4103493;28;20034;-74
2021/08/12 00:46:55;;;;;;;9.18;5.82;;;16.30;99.90;;;16.18;100.00;101539.25;4135690;28;20117;-74
2021/08/12 00:48:56;;;;;;;8.15;5.80;;;16.30;99.90;;;16.14;100.00;101536.09;4119512;28;20046;-74
2021/08/12 00:50:58;;;;;;;8.07;5.82;;;16.30;99.90;;;16.12;100.00;101542.59;4119293;28;20023;-74
2021/08/12 00:52:58;;;;;;;7.25;5.40;;;16.30;99.90;;;16.07;100.00;101542.28;4120516;28;20037;-74
2021/08/12 00:55:01;;;;;;;7.95;5.40;;;16.30;99.90;;;16.07;100.00;101535.13;4119462;28;20510;-74
2021/08/12 00:57:05;;;;;;;8.27;6.50;;;16.30;99.90;;;16.35;100.00;101541.66;4119452;28;20113;-74
2021/08/12 00:59:07;;;;;;;8.77;6.20;;;16.40;99.90;;;16.28;100.00;101530.03;4119337;28;20046;-74
2021/08/12 01:01:08;;;;;;;6.72;5.75;;;16.40;99.90;;;16.31;100.00;101534.19;4119471;28;20034;-74
2021/08/12 01:03:10;;;;;;;7.15;5.50;;;16.40;99.90;;;16.33;100.00;101532.19;4119475;28;20034;-74
2021/08/12 01:05:12;;;;;;;8.68;5.85;;;16.50;99.90;;;16.24;100.00;101531.41;4119115;28;20163;-74
2021/08/12 01:07:32;;;;;;;7.68;5.88;;;16.40;99.90;;;16.21;100.00;101529.09;4119317;28;20023;-74
2021/08/12 01:09:52;;;;;;;7.65;5.65;;;16.40;99.90;;;16.14;100.00;101532.59;4119478;28;20035;-74
2021/08/12 01:12:04;;;;;;;6.57;5.88;;;16.40;99.90;;;16.03;100.00;101533.81;4120361;28;20093;-74
2021/08/12 01:14:37;;;;;;;5.25;4.75;;;16.40;99.90;;;15.94;100.00;101532.19;4119677;28;20110;-74
2021/08/12 01:16:48;;;;;;;9.68;4.97;;;16.30;99.90;;;15.93;100.00;101534.00;4104360;28;20019;-74
2021/08/12 01:19:05;;;;;;;9.20;5.13;;;16.30;99.90;;;15.91;100.00;101516.56;4119251;28;20074;-74
2021/08/12 01:21:35;;;;;;;8.20;4.90;;;16.20;99.90;;;15.87;100.00;101531.19;4119139;28;20042;-74
2021/08/12 01:23:38;;;;;;;6.72;5.40;;;16.20;99.90;;;15.81;100.00;101532.72;4118980;28;20042;-74
2021/08/12 01:25:43;;;;;;;9.15;5.00;;;16.20;99.90;;;15.81;100.00;101529.22;4103312;28;20515;-74
2021/08/12 01:27:49;;;;;;;6.15;5.55;;;16.10;99.90;;;15.84;100.00;101536.88;4119021;28;20027;-74
2021/08/12 01:30:03;;;;;;;9.02;5.80;;;16.10;99.90;;;15.81;100.00;101537.22;4118796;28;20187;-74
2021/08/12 01:32:12;;;;;;;6.78;5.32;;;16.10;99.90;;;15.75;100.00;101529.91;4119086;28;20503;-74
2021/08/12 01:34:18;;;;;;;7.65;5.95;;;16.10;99.90;;;15.75;100.00;101537.88;4118926;28;20037;-74
2021/08/12 01:36:22;;;;;;;5.15;4.65;;;16.00;99.90;;;15.64;100.00;101514.31;4119940;28;20470;-74
2021/08/12 01:38:27;;;;;;;6.40;4.57;;;16.10;99.90;;;15.68;100.00;101516.44;4118455;28;20035;-74
2021/08/12 01:40:33;;;;;;;7.35;5.53;;;16.00;99.90;;;15.63;100.00;101518.81;4109949;28;20032;-74
2021/08/12 01:42:35;;;;;;;7.60;4.90;;;16.00;99.90;;;15.63;100.00;101515.31;4131358;28;20073;-74
2021/08/12 01:44:39;;;;;;;10.48;5.50;;;16.00;99.90;;;15.65;100.00;101518.66;4118762;28;20449;-74
2021/08/12 01:46:46;;;;;;;5.72;5.10;;;16.00;99.90;;;15.60;100.00;101515.66;4118673;28;20077;-74
2021/08/12 01:48:47;;;;;;;8.35;4.97;;;15.90;99.90;;;15.61;100.00;101509.34;4118943;28;20070;-74
2021/08/12 01:50:51;;;;;;;7.00;4.35;;;15.90;99.90;;;15.64;100.00;101503.69;4118541;28;20695;-74
2021/08/12 01:52:53;;;;;;;7.38;5.03;;;15.90;99.90;;;15.60;100.00;101502.34;4118415;28;20022;-74
2021/08/12 01:54:56;;;;;;;8.77;5.40;;;15.90;99.90;;;15.57;100.00;101502.69;4118637;28;20485;-74
2021/08/12 01:56:57;;;;;;;7.80;5.78;;;15.90;99.90;;;15.64;100.00;101503.69;4118551;28;20027;-74
2021/08/12 01:59:01;;;;;;;7.25;5.93;;;15.90;99.90;;;15.57;100.00;101500.03;4118507;28;20034;-74
2021/08/12 02:01:02;;;;;;;7.68;5.18;;;15.90;99.90;;;15.55;100.00;101504.69;4118625;28;20451;-74
2021/08/12 02:03:05;;;;;;;10.35;5.32;;;15.90;99.90;;;15.53;100.00;101506.72;4102349;29;20035;-74
2021/08/12 02:05:10;;;;;;;5.85;5.15;;;15.90;99.90;;;15.50;100.00;101510.53;4102404;28;20067;-75
2021/08/12 02:07:12;;;;;;;7.22;5.13;;;15.90;99.90;;;15.57;100.00;101511.50;4102684;28;20039;-74
2021/08/12 02:09:13;;;;;;;6.30;5.38;;;15.90;99.90;;;15.56;100.00;101507.16;4118301;28;20035;-74
2021/08/12 02:11:14;;;;;;;6.78;4.93;;;15.90;99.90;;;15.62;100.00;101505.69;4118549;28;20114;-74
2021/08/12 02:13:16;;;;;;;7.82;4.90;;;15.90;99.90;;;15.67;100.00;101511.31;4119623;28;20294;-74
2021/08/12 02:15:17;;;;;;;11.05;5.18;;;15.90;99.90;;;15.67;100.00;101506.00;4118346;28;20121;-75
2021/08/12 02:17:18;;;;;;;6.53;5.38;;;15.90;99.90;;;15.63;100.00;101494.03;4119280;28;20107;-74
2021/08/12 02:19:18;;;;;;;6.00;5.40;;;15.90;99.90;;;15.47;100.00;101495.72;4137946;28;20520;-74
2021/08/12 02:21:43;;;;;;;8.85;5.60;;;15.90;99.90;;;15.59;100.00;101500.72;4121808;28;20102;-74
2021/08/12 02:24:08;;;;;;;5.53;4.78;;;15.80;99.90;;;15.54;100.00;101498.53;4121562;28;20114;-74
2021/08/12 02:26:20;;;;;;;7.60;5.63;;;15.80;99.90;;;15.44;100.00;101484.59;4121798;28;20073;-74
2021/08/12 02:28:22;;;;;;;8.38;5.47;;;15.80;99.90;;;15.52;100.00;101489.09;4121412;28;20110;-74
2021/08/12 02:30:24;;;;;;;6.95;5.50;;;15.80;99.90;;;15.49;100.00;101485.78;4121689;28;20482;-74
2021/08/12 02:32:31;;;;;;;5.95;4.80;;;15.80;99.90;;;15.48;100.00;101484.09;4121598;28;20088;-74
2021/08/12 02:34:34;;;;;;;6.32;4.82;;;15.80;99.90;;;15.50;100.00;101490.06;4137514;28;20026;-74
2021/08/12 02:36:37;;;;;;;6.87;5.00;;;15.80;99.90;;;15.49;100.00;101488.44;4121451;28;20030;-74
2021/08/12 02:38:42;;;;;;;7.03;5.25;;;15.80;99.90;;;15.49;100.00;101491.09;4121369;28;20646;-74
2021/08/12 02:40:44;;;;;;;6.07;5.47;;;15.80;99.90;;;15.45;100.00;101487.06;4105531;28;20466;-75
2021/08/12 02:42:45;;;;;;;8.90;5.75;;;15.70;99.90;;;15.44;100.00;101474.75;4121175;28;20037;-74
2021/08/12 02:44:47;;;;;;;9.38;5.70;;;15.70;99.90;;;15.63;100.00;101470.09;4122628;28;20026;-74
2021/08/12 02:46:50;;;;;;;6.13;4.88;;;15.70;99.90;;;15.63;100.00;101480.72;4122690;28;20033;-74
2021/08/12 02:48:53;;;;;;;6.00;5.35;;;15.80;99.90;;;15.58;100.00;101470.63;4105430;28;20167;-74
2021/08/12 02:50:57;;;;;;;7.03;5.77;;;15.80;99.90;;;15.87;100.00;101480.66;4122340;28;20038;-74
2021/08/12 02:52:59;;;;;;;6.38;5.47;;;15.80;99.90;;;15.75;100.00;101472.22;4121137;28;20026;-74
2021/08/12 02:55:01;;;;;;;7.50;4.95;;;15.90;99.90;;;15.72;100.00;101480.53;4121411;28;20045;-74
2021/08/12 02:57:03;;;;;;;9.27;5.88;;;16.00;99.90;;;15.64;100.00;101477.09;4105112;28;20079;-74
2021/08/12 02:59:04;;;;;;;9.98;5.50;;;15.90;99.90;;;15.73;100.00;101476.88;4137223;28;20477;-74
2021/08/12 03:01:09;;;;;;;6.25;4.78;;;15.90;99.90;;;15.57;100.00;101463.63;4137259;28;20089;-74
2021/08/12 03:03:11;;;;;;;7.38;5.70;;;15.80;99.90;;;15.44;100.00;101456.16;4121382;28;20509;-74
2021/08/12 03:05:14;;;;;;;7.35;5.40;;;15.80;99.90;;;15.44;100.00;101460.66;4105076;28;20039;-74
2021/08/12 03:07:18;;;;;;;8.90;6.30;;;15.80;99.90;;;15.43;100.00;101457.16;4136919;28;20065;-74
2021/08/12 03:09:21;;;;;;;7.80;6.35;;;15.70;99.90;;;15.46;100.00;101448.84;4105096;28;20562;-74
2021/08/12 03:11:22;;;;;;;6.32;5.65;;;15.70;99.90;;;15.53;100.00;101453.53;4121046;28;20102;-74
2021/08/12 03:13:23;;;;;;;7.55;5.90;;;15.70;99.90;;;15.47;100.00;101434.56;4105201;28;20023;-74
2021/08/12 03:15:25;;;;;;;6.72;5.03;;;15.70;99.90;;;15.43;100.00;101435.91;4121083;28;20029;-74
2021/08/12 03:17:27;;;;;;;7.28;5.22;;;15.70;99.90;;;15.28;100.00;101445.56;4137122;28;20112;-74
2021/08/12 03:19:28;;;;;;;6.22;5.00;;;15.60;99.90;;;15.19;100.00;101435.94;4120975;28;20066;-74
2021/08/12 03:21:29;;;;;;;5.93;5.28;;;15.60;99.90;;;15.20;100.00;101444.75;4120835;28;20090;-74
2021/08/12 03:23:30;;;;;;;6.07;5.40;;;15.50;99.90;;;15.13;100.00;101457.06;4121997;28;20086;-74
2021/08/12 03:25:30;;;;;;;8.10;5.70;;;15.50;99.90;;;15.07;100.00;101447.94;4121015;28;20447;-74
2021/08/12 03:27:31;;;;;;;7.68;5.40;;;15.40;99.90;;;15.07;100.00;101436.47;4136963;28;20030;-74
2021/08/12 03:29:32;;;;;;;6.78;4.85;;;15.40;99.90;;;15.06;100.00;101435.63;4119305;28;20034;-74
2021/08/12 03:31:33;;;;;;;7.13;4.82;;;15.40;99.90;;;15.06;100.00;101440.94;4120922;28;20023;-74
2021/08/12 03:33:34;;;;;;;6.72;5.28;;;15.30;99.90;;;14.98;100.00;101433.00;4120681;28;20054;-74
2021/08/12 03:35:35;;;;;;;6.88;5.55;;;15.30;99.90;;;15.09;100.00;101440.59;4120719;28;20031;-74
2021/08/12 03:37:36;;;;;;;8.32;5.07;;;15.30;99.90;;;15.19;100.00;101438.59;4136428;28;20034;-74
2021/08/12 03:39:37;;;;;;;6.80;5.30;;;15.30;99.90;;;15.01;100.00;101427.34;4120729;28;20026;-74
2021/08/12 03:41:38;;;;;;;7.50;4.85;;;15.30;99.90;;;14.90;100.00;101430.34;4121610;28;20050;-74
2021/08/12 03:43:39;;;;;;;7.75;5.35;;;15.20;99.90;;;14.85;100.00;101428.19;4121765;28;20372;-74
2021/08/12 03:45:40;;;;;;;6.25;5.65;;;15.20;99.90;;;14.79;100.00;101422.69;4121671;28;20045;-74
2021/08/12 03:47:41;;;;;;;9.23;5.30;;;15.10;99.90;;;14.74;100.00;101414.41;4152498;28;20053;-74
2021/08/12 03:49:42;;;;;;;6.30;5.70;;;15.10;99.90;;;14.81;100.00;101423.38;4121674;28;20037;-74
2021/08/12 03:51:43;;;;;;;5.53;4.70;;;15.10;99.90;;;14.81;100.00;101434.00;4121589;28;20031;-74
2021/08/12 03:53:44;;;;;;;5.47;4.50;;;15.10;99.90;;;14.91;100.00;101421.34;4120160;28;20109;-74
2021/08/12 03:55:45;;;;;;;8.68;4.60;;;15.10;99.90;;;14.91;100.00;101421.34;4136350;28;20031;-74
2021/08/12 03:57:46;;;;;;;8.55;4.82;;;15.10;99.90;;;14.81;100.00;101412.75;4120305;28;20415;-74
2021/08/12 03:59:47;;;;;;;8.02;5.32;;;15.00;99.90;;;14.68;100.00;101415.91;4136338;28;20034;-74
2021/08/12 04:01:49;;;;;;;6.72;5.22;;;15.00;99.90;;;14.67;100.00;101408.09;4120112;28;20498;-74
2021/08/12 04:03:49;;;;;;;9.25;5.60;;;15.00;99.90;;;14.75;100.00;101394.84;4120135;28;20027;-74
2021/08/12 04:05:51;;;;;;;5.60;5.00;;;15.00;99.90;;;14.73;100.00;101402.13;4120179;28;20047;-74
2021/08/12 04:07:52;;;;;;;6.35;5.43;;;14.90;99.90;;;14.78;100.00;101405.91;4136123;28;20022;-74
2021/08/12 04:09:53;;;;;;;7.93;5.75;;;15.00;99.90;;;15.02;100.00;101413.06;4152331;28;20037;-74
2021/08/12 04:11:54;;;;;;;5.72;4.78;;;15.00;99.90;;;14.94;100.00;101411.25;4118958;28;20031;-74
2021/08/12 04:13:54;;;;;;;7.20;4.88;;;15.00;99.90;;;14.85;100.00;101408.75;4136248;28;20026;-74
2021/08/12 04:15:56;;;;;;;4.93;4.38;;;15.00;99.90;;;14.83;100.00;101416.06;4105283;28;20395;-74
2021/08/12 04:17:57;;;;;;;8.40;4.60;;;15.10;99.90;;;14.76;100.00;101417.72;4088092;29;20474;-74
2021/08/12 04:19:57;;;;;;;8.68;4.72;;;15.00;99.90;;;14.73;100.00;101407.44;4105222;28;20035;-74
2021/08/12 04:21:58;;;;;;;5.07;4.35;;;15.00;99.90;;;14.69;100.00;101417.56;4104089;28;20024;-74
2021/08/12 04:23:59;;;;;;;5.97;5.38;;;15.00;99.90;;;14.64;100.00;101433.16;4122960;28;20033;-74
2021/08/12 04:26:00;;;;;;;4.95;4.45;;;14.90;99.90;;;14.61;100.00;101443.28;4119916;28;20089;-74
2021/08/12 04:28:02;;;;;;;6.03;5.18;;;14.90;99.90;;;14.58;100.00;101438.28;4119717;28;20035;-74
2021/08/12 04:30:05;;;;;;;6.00;5.13;;;14.90;99.90;;;14.55;100.00;101430.66;4119805;28;20061;-74
2021/08/12 04:32:06;;;;;;;6.78;5.15;;;14.90;99.90;;;14.60;100.00;101450.44;4121206;28;20035;-74
2021/08/12 04:34:07;;;;;;;7.03;5.35;;;14.90;99.90;;;14.53;100.00;101451.25;4119798;28;20027;-74
2021/08/12 04:36:08;;;;;;;7.03;5.20;;;14.80;99.90;;;14.45;100.00;101445.94;4103576;29;20423;-74
2021/08/12 04:38:10;;;;;;;8.80;5.00;;;14.80;99.90;;;14.57;100.00;101460.53;4120764;28;20023;-74
2021/08/12 04:40:19;;;;;;;6.47;4.50;;;14.80;99.90;;;14.56;100.00;101458.88;4119272;28;20027;-74
2021/08/12 04:42:20;;;;;;;8.75;5.05;;;14.80;99.90;;;14.53;100.00;101460.03;4119544;28;20113;-74
2021/08/12 04:44:21;;;;;;;6.47;4.38;;;14.80;99.90;;;14.49;100.00;101458.69;4119513;28;20523;-74
2021/08/12 04:46:22;;;;;;;7.00;5.25;;;14.80;99.90;;;14.50;100.00;101472.81;4120923;28;20031;-74
2021/08/12 04:48:22;;;;;;;6.43;5.22;;;14.80;99.90;;;14.51;100.00;101466.50;4120729;28;20031;-74
2021/08/12 04:50:23;;;;;;;8.05;5.25;;;14.80;99.90;;;14.49;100.00;101449.91;4120778;28;20027;-74
2021/08/12 04:52:24;;;;;;;6.10;4.47;;;14.70;99.90;;;14.56;100.00;101454.41;4103123;28;20119;-74
2021/08/12 04:54:25;;;;;;;6.13;4.47;;;14.70;99.90;;;14.50;100.00;101433.81;4119612;28;20117;-74
2021/08/12 04:56:26;;;;;;;6.40;4.70;;;14.80;99.90;;;14.56;100.00;101441.13;4120690;28;20421;-74
2021/08/12 04:58:27;;;;;;;6.15;4.70;;;14.70;99.90;;;14.46;100.00;101443.09;4119527;28;20025;-74
2021/08/12 05:00:28;;;;;;;7.15;5.47;;;14.70;99.90;;;14.50;100.00;101449.75;4120504;28;20057;-74
2021/08/12 05:02:29;;;;;;;7.63;5.93;;;14.70;99.90;;;14.55;100.00;101435.97;4120606;28;20406;-74
2021/08/12 05:04:30;;;;;;;6.88;5.57;;;14.80;99.90;;;14.76;100.00;101439.81;4103429;28;20034;-75
2021/08/12 05:06:33;;;;;;;6.97;5.78;;;14.80;99.90;;;14.85;100.00;101432.66;4120388;28;20479;-74
2021/08/12 05:08:35;;;;;;;9.77;5.88;;;14.90;99.90;;;14.94;100.00;101431.66;4118747;28;20033;-74
2021/08/12 05:10:35;;;;;;;7.43;6.15;;;14.90;99.90;;;14.98;100.00;101445.44;4103218;28;20023;-74
2021/08/12 05:12:36;;;;;;;6.60;5.68;;;15.00;99.90;;;14.88;100.00;101453.56;4135195;28;20037;-74
2021/08/12 05:14:37;;;;;;;7.00;5.85;;;15.10;99.90;;;15.03;100.00;101445.75;4120298;28;20023;-74
2021/08/12 05:16:38;;;;;;;6.97;5.50;;;15.10;99.90;;;15.11;100.00;101440.44;4119037;28;20022;-74
2021/08/12 05:18:39;;;;;;;9.88;6.45;;;15.20;99.90;;;15.21;100.00;101447.22;4151477;28;20452;-74
2021/08/12 05:20:40;;;;;;;9.35;6.20;;;15.20;99.90;;;15.26;100.00;101454.72;4120284;28;20030;-74
2021/08/12 05:22:41;;;;;;;6.97;6.05;;;15.30;99.90;;;15.16;100.00;101444.25;4118752;28;20050;-74
2021/08/12 05:24:42;;;;;;;7.88;6.45;;;15.30;99.90;;;14.97;100.00;101431.31;4134922;28;20064;-74
2021/08/12 05:26:43;;;;;;;7.30;6.00;;;15.30;99.90;;;15.18;100.00;101450.22;4106000;28;20510;-74
2021/08/12 05:28:44;;;;;;;7.82;6.15;;;15.40;99.90;;;15.01;100.00;101448.59;4118904;28;20031;-74
2021/08/12 05:30:45;;;;;;;9.68;6.90;;;15.40;99.90;;;15.16;100.00;101452.22;4120071;28;20026;-74
2021/08/12 05:32:47;;;;;;;10.93;6.25;;;15.40;99.90;;;15.19;100.00;101445.75;4118842;28;20518;-74
2021/08/12 05:34:48;;;;;;;8.50;6.50;;;15.40;99.90;;;15.14;100.00;101446.25;4119922;28;20022;-74
2021/08/12 05:36:49;;;;;;;9.55;6.70;;;15.50;99.90;;;15.21;100.00;101452.53;4119852;28;20027;-74
2021/08/12 05:38:49;;;;;;;9.43;5.93;;;15.50;99.90;;;15.17;100.00;101453.06;4119628;28;20026;-74
2021/08/12 05:40:50;;;;;;;8.38;5.68;;;15.50;99.90;;;15.20;100.00;101450.88;4134639;28;20121;-74
2021/08/12 05:42:52;;;;;;;10.10;5.35;;;15.50;99.90;;;15.03;100.00;101440.44;4117743;28;20375;-74
2021/08/12 05:44:52;;;;;;;9.07;5.97;;;15.40;99.90;;;15.16;100.00;101430.13;4118820;28;20569;-74
2021/08/12 05:46:53;;;;;;;9.65;6.40;;;15.50;99.90;;;15.13;100.00;101436.63;4119940;28;20027;-74
2021/08/12 05:48:54;;;;;;;9.15;6.40;;;15.50;99.90;;;15.26;100.00;101441.44;4118496;28;20030;-74
2021/08/12 05:50:55;;;;;;;9.10;5.72;;;15.50;99.90;;;15.38;100.00;101432.91;4118443;28;20023;-74
2021/08/12 05:52:56;;;;;;;8.85;6.68;;;15.60;99.90;;;15.43;100.00;101446.53;4117511;28;20031;-74
2021/08/12 05:54:57;;;;;;;9.00;6.18;;;15.60;99.90;;;15.41;100.00;101447.72;4134741;28;20029;-74
2021/08/12 05:56:58;;;;;;;8.15;5.78;;;15.70;99.90;;;15.37;100.00;101451.69;4118576;28;20074;-74
2021/08/12 05:58:59;;;;;;;7.32;5.82;;;15.70;99.90;;;15.43;100.00;101443.88;4134527;28;20073;-74
2021/08/12 06:01:00;;;;;;;6.93;6.22;;;15.80;99.90;;;15.46;100.00;101442.69;4118618;28;20038;-74
2021/08/12 06:03:12;;;;;;;8.13;6.07;;;15.80;99.90;;;15.46;100.00;101438.22;4134523;28;20027;-74
2021/08/12 06:05:13;;;;;;;8.73;6.18;;;15.90;99.90;;;15.41;100.00;101432.56;4134562;28;20034;-74
2021/08/12 06:07:14;;;;;;;7.13;5.82;;;16.00;99.90;;;15.61;100.00;101445.50;4118105;28;20423;-75
2021/08/12 06:09:15;;;;;;;8.65;6.32;;;16.00;99.90;;;15.56;100.00;101439.88;4119712;28;20049;-74
2021/08/12 06:11:16;;;;;;;11.05;6.45;;;16.10;99.90;;;15.56;100.00;101440.69;4134586;28;20018;-74
2021/08/12 06:13:16;;;;;;;9.10;6.20;;;16.10;99.90;;;15.75;100.00;101456.25;4102235;29;20031;-74
2021/08/12 06:15:17;;;;;;;9.68;6.22;;;16.30;99.90;;;15.86;100.00;101450.53;4118360;28;20058;-74
2021/08/12 06:17:18;;;;;;;6.25;5.38;;;16.40;99.90;;;15.83;100.00;101444.78;4118513;28;20118;-74
2021/08/12 06:19:19;;;;;;;8.00;5.93;;;16.50;99.90;;;16.01;100.00;101453.31;4134573;28;20034;-74
2021/08/12 06:21:22;;;;;;;8.13;6.50;;;16.60;99.90;;;16.18;100.00;101438.09;4118452;28;20090;-74
2021/08/12 06:23:23;;;;;;;7.10;5.88;;;16.80;99.90;;;16.31;98.39;101433.00;4118254;28;20576;-74
2021/08/12 06:25:24;;;;;;;9.20;5.22;;;16.90;99.90;;;16.19;98.34;101427.25;4134323;28;20065;-74
2021/08/12 06:27:25;;;;;;;7.72;5.78;;;16.90;99.90;;;16.34;97.76;101416.69;4118518;28;20035;-75
2021/08/12 06:29:26;;;;;;;8.07;6.05;;;17.00;99.90;;;16.39;97.39;101411.66;4134382;28;20038;-74
2021/08/12 06:31:26;;;;;;;7.57;5.72;;;17.10;99.90;;;16.32;97.24;101400.06;4119414;28;20027;-75
2021/08/12 06:33:28;;;;;;;7.97;5.57;;;17.10;99.90;;;16.35;97.73;101397.88;4150652;28;20037;-74
2021/08/12 06:35:32;;;;;;;9.18;6.00;;;17.10;99.90;;;16.34;98.28;101390.06;4118206;28;20027;-74
2021/08/12 06:37:46;;;;;;;;;;;17.10;99.90;;;16.45;97.57;101398.47;4119639;28;20387;-75
2021/08/12 06:39:47;;;;;;;5.22;4.72;;;17.10;99.90;;;16.48;98.20;101395.47;4119468;28;19941;-74
2021/08/12 06:41:48;;;;;;;9.40;5.38;;;17.20;99.90;;;16.58;97.28;101395.22;4117981;28;20057;-74
2021/08/12 06:43:49;;;;;;;8.43;5.53;;;17.20;99.90;;;16.64;97.49;101401.66;4118246;28;20027;-74
2021/08/12 06:45:50;;;;;;;10.30;6.05;;;17.30;99.90;;;16.72;96.88;101398.94;4117937;28;20073;-74
2021/08/12 06:47:52;;;;;;;6.32;5.40;;;17.30;99.90;;;16.84;96.01;101418.84;4119559;28;20037;-74
2021/08/12 06:49:53;;;;;;;9.23;5.70;;;17.40;99.90;;;16.79;95.79;101406.03;4102195;28;20066;-74
2021/08/12 06:51:54;;;;;;;9.02;5.97;;;17.40;99.90;;;16.88;96.19;101420.94;4150271;28;20069;-74
2021/08/12 06:53:55;;;;;;;7.18;5.38;;;17.40;99.90;;;16.81;96.21;101408.53;4133755;28;20023;-74
2021/08/12 06:55:56;;;;;;;7.20;5.70;;;17.50;99.90;;;16.94;95.31;101430.03;4118104;28;20023;-74
2021/08/12 06:57:58;;;;;;;9.57;6.97;;;17.60;99.90;;;16.79;95.47;101424.69;4133954;28;20046;-74
2021/08/12 06:59:59;;;;;;;8.63;5.63;;;17.60;99.90;;;16.93;95.92;101425.75;4119285;28;20031;-74
2021/08/12 07:01:59;;;;;;;6.50;5.72;;;17.60;99.90;;;17.02;95.31;101424.66;4117905;28;20034;-74
2021/08/12 07:04:00;;;;;;;8.38;5.88;;;17.70;99.90;;;17.10;95.21;101424.56;4151893;28;20133;-74
2021/08/12 07:06:01;;;;;;;7.32;6.00;;;17.80;99.90;;;17.24;94.74;101429.09;4122176;28;20035;-74
2021/08/12 07:08:03;;;;;;;7.32;5.60;;;17.80;99.90;;;17.28;94.68;101426.88;4121916;28;20031;-74
2021/08/12 07:10:05;;;;;;;6.85;5.78;;;17.90;99.90;;;17.41;94.53;101441.22;4120818;28;20027;-74
2021/08/12 07:12:07;;;;;;;7.65;5.00;;;18.00;99.90;;;17.42;94.49;101448.22;4122144;28;20047;-74
2021/08/12 07:14:07;;;;;;;6.00;5.28;;;18.10;99.90;;;17.55;95.21;101452.97;4121981;28;20027;-74
2021/08/12 07:16:13;;;;;;;11.68;7.95;;;18.20;99.90;;;17.58;93.66;101444.59;4120803;28;20037;-74
2021/08/12 07:18:14;;;;;;;10.10;8.25;;;18.30;99.90;;;17.78;93.07;101436.84;4136382;28;20019;-74
2021/08/12 07:20:15;;;;;;;13.88;10.73;;;18.40;99.90;;;17.87;92.21;101433.06;4121030;28;20069;-74
2021/08/12 07:22:18;;;;;;;14.95;11.70;;;18.50;99.90;;;17.96;91.65;101431.94;4121721;28;20173;-74
2021/08/12 07:24:20;;;;;;;24.08;17.65;;;18.60;99.90;;;17.96;91.21;101432.75;4122183;28;20483;-74
2021/08/12 07:26:21;;;;;;;24.77;18.33;;;18.70;99.90;;;17.94;91.79;101439.31;4120781;28;20023;-74
2021/08/12 07:28:21;;;;;;;23.60;18.42;;;18.70;99.90;;;17.93;91.51;101443.81;4121951;28;20447;-74
2021/08/12 07:30:22;;;;;;;18.52;14.93;;;18.70;99.90;;;17.99;91.98;101450.25;4121027;28;20042;-74
2021/08/12 07:32:23;;;;;;;16.77;12.85;;;18.80;99.90;;;17.92;92.46;101452.03;4136940;28;20022;-74
2021/08/12 07:34:24;;;;;;;17.30;11.88;;;18.80;99.90;;;18.18;92.01;101455.84;4120695;28;20398;-74
2021/08/12 07:36:25;;;;;;;13.38;9.57;;;18.90;99.90;;;18.35;91.54;101459.09;4136686;28;20033;-74
2021/08/12 07:38:26;;;;;;;9.68;8.55;;;19.10;99.90;;;18.51;90.70;101455.38;4120281;28;20031;-74
2021/08/12 07:40:28;;;;;;;9.55;7.15;;;19.30;99.90;;;18.65;89.99;101447.31;4104387;29;20035;-74
2021/08/12 07:42:29;;;;;;;10.48;6.78;;;19.50;99.90;;;18.74;89.01;101453.34;4136467;28;20042;-74
2021/08/12 07:44:30;;;;;;;12.23;7.72;;;19.70;99.90;;;18.83;88.96;101456.72;4120197;28;20023;-74
2021/08/12 07:46:31;;;;;;;12.10;7.97;;;19.70;99.90;;;18.83;88.82;101456.72;4120408;28;20062;-74
2021/08/12 07:48:32;;;;;;;10.80;7.82;;;19.70;99.90;;;18.77;89.66;101455.63;4152663;28;20022;-74
2021/08/12 07:50:33;;;;;;;10.23;7.38;;;19.70;99.90;;;18.78;89.09;101451.94;4104345;28;20027;-74
2021/08/12 07:52:37;;;;;;;8.10;6.63;;;19.70;99.90;;;18.79;88.90;101457.09;4136097;28;20030;-74
2021/08/12 07:54:39;;;;;;;8.90;6.45;;;19.70;99.90;;;18.73;89.45;101452.50;4121545;28;20031;-74
2021/08/12 07:56:39;;;;;;;9.18;6.35;;;19.70;99.90;;;18.73;90.22;101452.50;4120332;28;20030;-74
2021/08/12 07:58:40;;;;;;;9.30;6.93;;;19.60;99.90;;;18.79;89.79;101473.13;4121299;28;20479;-74
2021/08/12 08:00:41;;;;;;;9.25;6.82;;;19.70;99.90;;;18.75;90.71;101479.06;4120101;28;20018;-74
2021/08/12 08:02:48;;;;;;;12.07;8.50;;;19.70;99.90;;;18.56;91.39;101485.03;4121531;28;20023;-74
2021/08/12 08:04:48;;;;;;;11.32;9.40;;;19.60;99.90;;;18.66;91.14;101485.56;4120144;28;20050;-74
2021/08/12 08:06:49;;;;;;;14.55;10.82;;;19.50;99.90;;;18.63;91.41;101500.13;4120146;28;20030;-74
2021/08/12 08:08:50;;;;;;;15.32;11.50;;;19.50;99.90;;;18.69;90.80;101478.00;4119693;28;20031;-74
2021/08/12 08:10:51;;;;;;;20.13;13.63;;;19.50;99.90;;;18.72;91.01;101482.94;4120097;28;20031;-74
2021/08/12 08:12:53;;;;;;;16.52;12.68;;;19.50;99.90;;;18.81;91.32;101485.50;4136165;28;20030;-74
2021/08/12 08:14:54;;;;;;;14.98;11.27;;;19.60;99.90;;;18.89;89.88;101474.66;4119225;28;20031;-74
2021/08/12 08:16:55;;;;;;;16.25;11.50;;;19.60;99.90;;;18.97;90.20;101471.84;4120028;28;20038;-74
2021/08/12 08:18:56;;;;;;;14.98;10.88;;;19.60;99.90;;;18.90;90.35;101476.31;4136262;28;20030;-74
2021/08/12 08:20:57;;;;;;;14.85;11.45;;;19.60;99.90;;;18.96;89.76;101475.56;4119861;28;20482;-74
2021/08/12 08:23:06;;;;;;;13.18;11.50;;;19.70;99.90;;;18.83;90.06;101480.78;4120669;28;20035;-74